Weather reports worldwide

Advertisment
Neuhaus am Rennweg, Germany (10557): temperature & dewpoint: 10.09.2019 05:00:00 - 16.09.2019 05:00:00 (CEST)Neuhaus am Rennweg, Germany (10557): temperature 5cm & temperature -5cm: 10.09.2019 05:00:00 - 16.09.2019 05:00:00 (CEST)Neuhaus am Rennweg, Germany (10557): temperature -20cm & temperature -100cm: 10.09.2019 05:00:00 - 16.09.2019 05:00:00 (CEST)Neuhaus am Rennweg, Germany (10557): wind speed & gusts: 10.09.2019 05:00:00 - 16.09.2019 05:00:00 (CEST)Neuhaus am Rennweg, Germany (10557): wind direction: 10.09.2019 05:00:00 - 16.09.2019 05:00:00 (CEST)Neuhaus am Rennweg, Germany (10557): visibility: 10.09.2019 05:00:00 - 16.09.2019 05:00:00 (CEST)Neuhaus am Rennweg, Germany (10557): precipitation: 10.09.2019 05:00:00 - 16.09.2019 05:00:00 (CEST)
Date & Time tt [°C] td [°C] tt 5cm [°C] tt -5cm [°C] tt -20cm [°C] tt -100cm [°C] ff [km/h] ff [kn] fx [km/h] fx [kn] dd vv [km] rr [mm]
16.09.2019 05:00:00 11,2 3,5 8,0 10,1 13,8 14,2 7 4 14 7 NNW 63 0,0
16.09.2019 04:00:00 11,5 2,4 8,2 10,3 14,0 14,2 5 3 13 7 WNW 56 0,0
16.09.2019 03:00:00 11,6 2,1 7,2 10,6 14,3 14,2 6 3 18 10 NW 61 0,0
16.09.2019 02:00:00 11,8 3,0 7,4 11,1 14,6 14,2 10 6 18 10 NNW 75 0,0
16.09.2019 01:00:00 12,8 3,5 8,7 11,7 14,8 14,2 13 7 22 12 NW 70 0,0
16.09.2019 00:00:00 13,7 3,3 10,9 12,4 15,1 14,2 10 6 22 12 WNW 56 0,0
15.09.2019 23:00:00 14,3 4,5 10,3 13,2 15,4 14,2 11 6 21 11 W 67 0,0
15.09.2019 22:00:00 15,5 5,2 12,9 14,1 15,6 14,2 16 8 26 14 W 74 0,0
15.09.2019 21:00:00 16,3 5,3 13,4 15,1 15,7 14,2 14 7 22 12 W 57 0,0
15.09.2019 20:00:00 17,2 4,6 12,8 16,5 15,7 14,2 11 6 19 10 W 75 0,0
15.09.2019 19:00:00 19,6 4,2 17,9 18,1 15,6 14,3 12 7 28 15 WSW 75 0,0
15.09.2019 18:00:00 21,0 5,7 21,3 19,4 15,4 14,3 16 8 29 15 SW 54 0,0
15.09.2019 17:00:00 20,9 6,4 21,5 19,9 15,0 14,3 19 10 29 16 WSW 75 0,0
15.09.2019 16:00:00 21,3 6,4 22,3 21,3 14,5 14,3 18 10 32 18 SW 75 0,0
15.09.2019 15:00:00 20,6 5,8 23,0 21,0 13,9 14,3 18 10 35 19 WSW 55 0,0
15.09.2019 14:00:00 20,1 8,1 23,2 20,0 13,4 14,3 18 10 31 17 SW 54 0,0
15.09.2019 13:00:00 18,9 8,9 21,7 18,4 12,9 14,3 16 9 32 17 SW 72 0,0
15.09.2019 12:00:00 17,1 10,4 19,5 16,6 12,5 14,3 19 10 31 17 SW 53 0,0
15.09.2019 11:00:00 16,4 10,3 18,2 14,2 12,4 14,3 12 6 32 17 WSW 75 0,0
15.09.2019 10:00:00 15,2 10,5 15,6 11,9 12,3 14,3 11 6 28 15 WSW 52 0,0
15.09.2019 09:00:00 13,6 10,9 11,9 10,2 12,4 14,3 16 9 28 15 SW 41 0,0
15.09.2019 08:00:00 11,4 10,2 9,4 9,5 12,6 14,3 12 7 20 11 SW 27 0,0
15.09.2019 07:00:00 10,9 9,7 8,4 9,3 12,7 14,3 11 6 21 11 SSW 27 0,0
15.09.2019 06:00:00 11,2 9,6 9,1 9,4 12,9 14,3 9 5 18 10 SSW 41 0,0
15.09.2019 05:00:00 11,0 9,3 8,5 9,5 13,1 14,3 8 5 19 10 SSW 39 0,0
15.09.2019 04:00:00 10,4 8,8 8,4 9,6 13,3 14,3 11 6 15 8 S 39 0,0
15.09.2019 03:00:00 10,0 8,4 7,0 9,7 13,6 14,3 8 5 17 9 SSW 48 0,0
15.09.2019 02:00:00 10,0 8,1 7,4 10,0 13,8 14,3 9 5 15 8 SSW 47 0,0
15.09.2019 01:00:00 9,5 7,7 5,8 10,4 14,1 14,3 8 4 12 6 SW 41 0,0
15.09.2019 00:00:00 9,3 7,2 5,6 11,1 14,4 14,3 8 4 12 7 SSW 46 0,0
14.09.2019 23:00:00 9,5 7,0 7,0 11,9 14,7 14,3 4 2 9 5 SSE 41 0,0
14.09.2019 22:00:00 10,6 7,5 8,3 12,7 14,9 14,3 6 3 12 7 ENE 45 0,0
14.09.2019 21:00:00 11,4 7,5 9,6 13,7 15,0 14,3 6 3 11 6 NE 52 0,0
14.09.2019 20:00:00 12,3 8,0 10,2 15,0 15,1 14,3 5 3 13 7 ENE 47 0,0
14.09.2019 19:00:00 14,0 8,2 13,0 16,6 15,0 14,3 8 4 15 8 ENE 48 0,0
14.09.2019 18:00:00 15,7 8,6 17,0 18,1 14,8 14,3 9 5 18 10 ENE 64 0,0
14.09.2019 17:00:00 15,7 7,9 17,8 18,4 14,4 14,3 10 5 16 9 NNE 44 0,0
14.09.2019 16:00:00 15,6 7,9 17,0 19,9 14,0 14,3 8 5 19 11 ENE 61 0,0
14.09.2019 15:00:00 15,7 7,9 21,1 19,5 13,5 14,3 6 4 18 10 SSW 40 0,0
14.09.2019 14:00:00 15,8 8,3 19,4 18,9 13,0 14,3 6 3 16 9 SSE 66 0,0
14.09.2019 13:00:00 14,1 8,5 18,2 16,3 12,7 14,3 3 2 15 8 NNE 55 0,0
14.09.2019 12:00:00 12,4 8,0 14,6 14,2 12,5 14,3 9 5 18 10 NE 67 0,0
14.09.2019 11:00:00 11,9 7,6 14,1 12,8 12,4 14,3 10 5 16 9 NE 35 0,0
14.09.2019 10:00:00 11,0 7,1 14,0 10,6 12,6 14,3 6 3 15 8 E 63 0,0
14.09.2019 09:00:00 8,4 5,4 7,5 9,0 12,8 14,4 9 5 18 10 NE 36 0,0
14.09.2019 08:00:00 7,2 5,1 6,2 8,9 13,0 14,4 11 6 17 9 NNE 40 0,0
14.09.2019 07:00:00 7,1 5,1 5,3 9,3 13,2 14,4 10 5 19 10 NNE 39 0,0
14.09.2019 06:00:00 7,4 5,7 6,9 9,6 13,5 14,4 10 5 16 8 N 45 0,0
14.09.2019 05:00:00 7,6 5,8 6,2 10,1 13,7 14,4 9 5 20 11 NNE 42 0,0
14.09.2019 04:00:00 8,3 6,6 6,7 10,8 13,9 14,4 10 6 18 10 N 39 0,0
14.09.2019 03:00:00 9,4 7,1 7,9 11,7 14,1 14,4 10 5 18 10 NNE 47 0,0
14.09.2019 02:00:00 10,9 8,4 9,6 12,6 14,2 14,4 11 6 23 12 NNE 48 0,0
14.09.2019 01:00:00 11,9 10,2 11,6 13,0 14,3 14,4 13 7 23 12 NNE 47 0,0
14.09.2019 00:00:00 12,0 10,5 11,9 13,1 14,4 14,4 14 7 21 12 N 40 0,0
13.09.2019 23:00:00 12,3 10,4 11,6 13,4 14,6 14,4 10 5 19 10 N 57 0,0
13.09.2019 22:00:00 12,7 10,4 11,8 13,8 14,7 14,4 10 5 22 12 N 68 0,0
13.09.2019 21:00:00 13,2 11,1 12,7 14,5 14,7 14,4 14 8 21 11 N 49 0,0
13.09.2019 20:00:00 13,5 10,9 12,7 15,4 14,7 14,4 12 6 21 12 NNW 60 0,0
13.09.2019 19:00:00 14,5 11,4 14,2 16,5 14,6 14,4 11 6 27 15 NNW 55 0,0
13.09.2019 18:00:00 17,2 11,6 18,6 17,3 14,4 14,4 10 5 20 11 W 75 0,0
13.09.2019 17:00:00 17,2 12,3 19,4 17,0 14,2 14,4 9 5 18 10 W 56 0,0
13.09.2019 16:00:00 15,8 12,8 17,0 16,2 14,0 14,4 10 6 17 9 W 57 0,0
13.09.2019 15:00:00 15,3 12,7 15,9 16,3 13,8 14,4 8 4 23 12 W 62 0,0
13.09.2019 14:00:00 15,2 12,7 17,7 15,6 13,6 14,4 11 6 26 14 WSW 50 0,0
13.09.2019 13:00:00 14,8 12,5 16,4 15,1 13,4 14,4 16 8 28 15 WSW 58 0,0
13.09.2019 12:00:00 13,7 12,1 14,3 14,6 13,3 14,4 11 6 26 14 W 30 0,0
13.09.2019 11:00:00 14,6 12,2 15,7 14,3 13,2 14,5 16 9 28 15 W 61 0,0
13.09.2019 10:00:00 13,6 12,1 13,4 13,3 13,1 14,5 13 7 27 15 W 34 0,0
13.09.2019 09:00:00 13,1 11,9 12,9 12,0 13,2 14,5 13 7 27 14 SW 20 0,0
13.09.2019 08:00:00 12,2 11,5 11,6 11,6 13,3 14,5 12 6 22 12 SW 13 0,0
13.09.2019 07:00:00 11,8 11,4 10,9 11,3 13,4 14,5 9 5 16 8 S 6 0,0
13.09.2019 06:00:00 11,5 11,0 10,8 11,1 13,6 14,5 6 4 10 5 S 9 0,0
13.09.2019 05:00:00 11,4 10,7 9,3 11,3 13,7 14,5 5 3 6 4 S 12 0,0
13.09.2019 04:00:00 11,4 10,5 8,5 11,9 13,8 14,5 3 2 8 5 SSW 14 0,0
13.09.2019 03:00:00 12,7 11,8 10,4 12,6 13,9 14,5 5 3 16 8 SW 19 0,0
13.09.2019 02:00:00 13,3 12,3 12,5 12,6 14,1 14,5 9 5 16 8 WSW 34 0,0
13.09.2019 01:00:00 13,5 12,1 12,0 12,7 14,2 14,5 11 6 26 14 WSW 43 0,0
13.09.2019 00:00:00 13,5 12,2 12,3 13,0 14,4 14,5 14 8 23 12 WSW 43 0,0
12.09.2019 23:00:00 13,8 12,1 12,3 13,5 14,5 14,5 12 6 20 11 SW 55 0,0
12.09.2019 22:00:00 13,8 12,0 12,9 13,6 14,7 14,5 9 5 18 10 SW 64 0,0
12.09.2019 21:00:00 13,7 11,6 12,0 14,2 14,8 14,6 10 6 17 9 SW 52 0,0
12.09.2019 20:00:00 14,1 11,2 12,3 15,2 14,8 14,6 7 4 17 9 WSW 75 0,0
12.09.2019 19:00:00 15,5 11,2 14,3 16,6 14,6 14,6 10 6 24 13 WSW 74 0,0
12.09.2019 18:00:00 16,4 11,3 16,6 17,5 14,4 14,6 14 7 30 16 WSW 65 0,0
12.09.2019 17:00:00 16,7 11,7 17,7 17,9 14,1 14,6 13 7 27 15 SW 63 0,0
12.09.2019 16:00:00 17,0 12,0 18,4 18,5 13,8 14,6 14 8 23 12 SSW 72 0,0
12.09.2019 15:00:00 15,1 11,3 16,0 18,1 13,4 14,6 13 7 30 16 SSW 58 0,0
12.09.2019 14:00:00 14,2 11,0 15,9 17,0 13,1 14,6 15 8 28 15 SSW 51 0,0
12.09.2019 13:00:00 13,5 11,0 15,1 15,7 12,9 14,6 13 7 22 12 SSW 44 0,0
12.09.2019 12:00:00 12,7 10,6 14,1 14,6 12,7 14,6 13 7 25 14 SW 12 0,0
12.09.2019 11:00:00 11,7 10,5 12,3 13,3 12,6 14,6 12 6 23 12 SW 12 0,0
12.09.2019 10:00:00 11,0 10,3 11,5 12,3 12,5 14,7 11 6 27 15 SW 12 0,0
12.09.2019 09:00:00 10,4 9,9 10,5 11,4 12,6 14,7 12 7 25 13 SW 10 0,1
12.09.2019 08:00:00 9,8 9,2 9,9 11,0 12,6 14,7 9 5 26 14 SSW 3,9 0,0
12.09.2019 07:00:00 10,2 8,9 9,7 10,9 12,7 14,7 13 7 24 13 SW 4,8 0,0
12.09.2019 06:00:00 10,2 8,8 9,8 10,9 12,8 14,7 16 8 27 15 SW 31 0,0
12.09.2019 05:00:00 10,3 8,9 10,0 11,1 12,9 14,7 10 5 32 17 WSW 33 0,0
12.09.2019 04:00:00 9,9 9,1 9,8 11,1 13,0 14,7 15 8 31 17 WSW 15 0,0
12.09.2019 03:00:00 10,0 9,0 9,8 11,2 13,1 14,7 11 6 29 16 WSW 19 0,0
12.09.2019 02:00:00 10,8 8,0 10,5 11,2 13,2 14,7 18 10 29 16 WSW 42 0,0
12.09.2019 01:00:00 11,8 6,6 11,2 11,2 13,4 14,7 14 7 30 16 WSW 59 0,0
12.09.2019 00:00:00 12,2 6,2 11,2 11,3 13,5 14,8 14 8 30 16 SW 32 0,0
11.09.2019 23:00:00 12,4 5,6 11,0 11,6 13,7 14,8 16 9 36 19 SW 60 0,0
11.09.2019 22:00:00 12,7 4,7 11,8 12,0 13,9 14,8 14 8 26 14 SW 63 0,0
11.09.2019 21:00:00 12,4 4,7 10,2 12,9 14,1 14,8 11 6 18 10 WSW 65 0,0
11.09.2019 20:00:00 12,8 4,9 10,0 14,0 14,1 14,8 9 5 18 10 SW 70 0,0
11.09.2019 19:00:00 14,6 5,1 12,8 15,6 14,0 14,8 11 6 24 13 SW 61 0,0
11.09.2019 18:00:00 15,9 5,0 17,1 16,7 13,7 14,8 13 7 29 16 SW 49 0,0
11.09.2019 17:00:00 16,0 4,4 16,3 17,5 13,4 14,8 18 10 31 17 SSW 42 0,0
11.09.2019 16:00:00 16,4 5,4 18,1 18,7 12,9 14,8 13 7 31 17 SW 58 0,0
11.09.2019 15:00:00 16,1 5,5 18,2 17,9 12,4 14,9 18 10 32 17 SSW 47 0,0
11.09.2019 14:00:00 15,0 5,1 17,0 17,2 11,9 14,9 14 8 29 16 WSW 59 0,0
11.09.2019 13:00:00 14,3 3,5 15,3 16,3 11,4 14,9 12 6 30 16 WSW 64 0,0
11.09.2019 12:00:00 15,1 4,9 19,0 14,7 11,0 14,9 13 7 27 15 WSW 52 0,0
11.09.2019 11:00:00 14,0 3,8 16,1 12,1 10,8 14,9 14 7 22 12 S 62 0,0
11.09.2019 10:00:00 12,8 4,7 14,1 8,9 10,9 14,9 11 6 18 10 S 49 0,0
11.09.2019 09:00:00 11,1 3,9 8,4 6,8 11,0 14,9 9 5 13 7 SSW 47 0,0
11.09.2019 08:00:00 8,7 3,7 4,0 6,4 11,2 14,9 4 2 5 3 SSW 66 0,0
11.09.2019 07:00:00 7,1 3,7 2,2 6,4 11,5 14,9 2 1 3 2 W 59 0,0
11.09.2019 06:00:00 7,1 3,6 2,2 6,8 11,7 15,0 4 2 5 3 NNW 52 0,0
11.09.2019 05:00:00 7,1 3,6 2,2 7,1 12,0 15,0 3 2 5 3 WNW 60 0,0
11.09.2019 04:00:00 7,2 4,0 2,8 7,5 12,2 15,0 3 2 6 3 W 56 0,0
11.09.2019 03:00:00 7,7 4,3 3,3 7,9 12,5 15,0 4 2 8 4 W 54 0,0
11.09.2019 02:00:00 8,1 3,8 3,6 8,4 12,8 15,0 4 2 7 4 WSW 48 0,0
11.09.2019 01:00:00 7,9 4,6 3,5 8,8 13,1 15,0 6 3 9 5 WSW 46 0,0
11.09.2019 00:00:00 8,0 4,5 3,8 9,5 13,4 15,0 7 4 11 6 SW 53 0,0
10.09.2019 23:00:00 8,2 4,4 4,0 10,2 13,6 15,0 6 4 10 5 SW 56 0,0
10.09.2019 22:00:00 8,3 4,7 4,9 11,2 13,9 15,1 6 3 9 5 SW 41 0,0
10.09.2019 21:00:00 8,6 4,6 5,1 12,4 14,0 15,1 6 3 8 4 WSW 48 0,0
10.09.2019 20:00:00 10,1 5,3 7,5 13,9 14,0 15,1 5 3 10 6 W 51 0,0
10.09.2019 19:00:00 11,5 5,3 10,9 15,1 13,9 15,1 7 4 13 7 SW 55 0,0
10.09.2019 18:00:00 12,4 5,7 12,0 16,5 13,7 15,1 10 5 24 13 SW 56 0,0
10.09.2019 17:00:00 13,5 5,1 15,6 16,8 13,3 15,1 14 8 23 12 SSW 53 0,0
10.09.2019 16:00:00 13,1 4,6 14,2 18,2 12,9 15,1 11 6 24 13 WSW 52 0,0
10.09.2019 15:00:00 12,7 4,5 16,0 17,8 12,4 15,1 14 8 24 13 W 38 0,0
10.09.2019 14:00:00 12,1 6,3 15,2 17,0 11,9 15,1 11 6 26 14 SW 34 0,0
10.09.2019 13:00:00 11,6 7,1 14,5 14,6 11,5 15,2 14 8 23 12 S 37 0,0
10.09.2019 12:00:00 10,9 7,2 12,5 14,3 11,1 15,2 14 8 23 12 S 42 0,0
10.09.2019 11:00:00 10,2 7,9 12,4 12,3 10,9 15,2 9 5 15 8 S 25 0,0
10.09.2019 10:00:00 9,6 7,7 10,6 9,2 11,0 15,2 9 5 15 8 S 20 0,0
10.09.2019 09:00:00 8,3 6,9 7,1 7,3 11,1 15,2 6 4 10 5 SW 22 0,0
10.09.2019 08:00:00 6,8 6,2 5,3 6,9 11,3 15,2 6 3 11 6 WSW 13 0,0
10.09.2019 07:00:00 5,6 5,2 3,0 7,2 11,5 15,2 7 4 9 5 W 1,1 0,0
10.09.2019 06:00:00 5,5 4,8 3,1 7,7 11,6 15,2 6 3 12 6 W 2,9 0,0
10.09.2019 05:00:00 6,2 5,5 4,1 8,5 11,8 15,2 8 4 12 6 W 0,2 0,0

tt = temperature
td = dewpoint
tt 5cm = temperature 5cm
tt -5cm = temperature -5cm
tt -20cm = temperature -20cm
tt -100cm = temperature -100cm
ff = wind speed
fx = gusts
dd = wind direction
vv = visibility
rr = precipitation

Next stations